sensor_id;sensor_type;location;lat;lon;timestamp;temperature;humidity
6468;DHT22;3267;48.794;9.928;2023-03-23T05:02:11;19.30;64.90
6468;DHT22;3267;48.794;9.928;2023-03-23T05:04:39;19.30;64.10
6468;DHT22;3267;48.794;9.928;2023-03-23T05:07:07;19.20;64.50
6468;DHT22;3267;48.794;9.928;2023-03-23T05:09:33;19.30;64.40
6468;DHT22;3267;48.794;9.928;2023-03-23T05:12:04;19.00;63.40
6468;DHT22;3267;48.794;9.928;2023-03-23T05:14:31;18.90;63.50
6468;DHT22;3267;48.794;9.928;2023-03-23T05:16:56;18.60;62.90
6468;DHT22;3267;48.794;9.928;2023-03-23T05:19:22;18.60;64.40
6468;DHT22;3267;48.794;9.928;2023-03-23T05:21:47;18.80;63.90
6468;DHT22;3267;48.794;9.928;2023-03-23T05:24:16;18.80;64.70
6468;DHT22;3267;48.794;9.928;2023-03-23T05:26:41;18.80;63.90
6468;DHT22;3267;48.794;9.928;2023-03-23T05:29:07;19.00;64.40
6468;DHT22;3267;48.794;9.928;2023-03-23T05:31:32;19.20;66.50
6468;DHT22;3267;48.794;9.928;2023-03-23T05:33:58;19.50;64.40
6468;DHT22;3267;48.794;9.928;2023-03-23T05:36:24;18.90;65.10
6468;DHT22;3267;48.794;9.928;2023-03-23T05:38:52;18.90;64.90
6468;DHT22;3267;48.794;9.928;2023-03-23T05:41:18;18.80;64.50
6468;DHT22;3267;48.794;9.928;2023-03-23T05:43:44;18.70;64.00
6468;DHT22;3267;48.794;9.928;2023-03-23T05:46:09;21.40;68.10
6468;DHT22;3267;48.794;9.928;2023-03-23T05:48:35;18.80;63.50
6468;DHT22;3267;48.794;9.928;2023-03-23T05:51:02;18.60;63.70
6468;DHT22;3267;48.794;9.928;2023-03-23T05:53:28;18.80;64.50
6468;DHT22;3267;48.794;9.928;2023-03-23T05:56:02;19.80;65.10
6468;DHT22;3267;48.794;9.928;2023-03-23T05:58:29;19.30;63.40
6468;DHT22;3267;48.794;9.928;2023-03-23T06:00:54;21.70;66.20
6468;DHT22;3267;48.794;9.928;2023-03-23T06:03:21;18.80;64.40
6468;DHT22;3267;48.794;9.928;2023-03-23T06:05:48;18.40;63.50
6468;DHT22;3267;48.794;9.928;2023-03-23T06:08:14;19.10;65.90
6468;DHT22;3267;48.794;9.928;2023-03-23T06:10:39;18.90;65.90
6468;DHT22;3267;48.794;9.928;2023-03-23T06:13:05;19.10;65.30
6468;DHT22;3267;48.794;9.928;2023-03-23T06:15:31;21.10;67.90
6468;DHT22;3267;48.794;9.928;2023-03-23T06:17:59;21.30;66.70
6468;DHT22;3267;48.794;9.928;2023-03-23T06:20:24;19.00;64.00
6468;DHT22;3267;48.794;9.928;2023-03-23T06:22:50;18.80;64.60
6468;DHT22;3267;48.794;9.928;2023-03-23T06:25:17;18.80;64.50
6468;DHT22;3267;48.794;9.928;2023-03-23T06:27:43;18.70;65.10
6468;DHT22;3267;48.794;9.928;2023-03-23T06:30:10;19.20;64.60
6468;DHT22;3267;48.794;9.928;2023-03-23T06:32:37;19.20;64.90
6468;DHT22;3267;48.794;9.928;2023-03-23T06:35:04;18.90;64.80
6468;DHT22;3267;48.794;9.928;2023-03-23T06:37:30;19.10;65.00
6468;DHT22;3267;48.794;9.928;2023-03-23T06:39:56;19.20;64.50
6468;DHT22;3267;48.794;9.928;2023-03-23T06:42:23;19.20;65.90
6468;DHT22;3267;48.794;9.928;2023-03-23T06:44:52;18.80;64.10
6468;DHT22;3267;48.794;9.928;2023-03-23T06:47:18;18.70;64.50
6468;DHT22;3267;48.794;9.928;2023-03-23T06:49:43;18.80;65.70
6468;DHT22;3267;48.794;9.928;2023-03-23T06:52:09;18.80;64.20
6468;DHT22;3267;48.794;9.928;2023-03-23T06:54:35;18.90;64.80
6468;DHT22;3267;48.794;9.928;2023-03-23T06:57:01;20.20;65.90
6468;DHT22;3267;48.794;9.928;2023-03-23T06:59:27;18.70;64.50
6468;DHT22;3267;48.794;9.928;2023-03-23T07:01:52;18.60;65.10
6468;DHT22;3267;48.794;9.928;2023-03-23T07:04:18;18.70;65.90
6468;DHT22;3267;48.794;9.928;2023-03-23T07:06:44;18.60;64.40
6468;DHT22;3267;48.794;9.928;2023-03-23T07:09:11;18.70;66.00
6468;DHT22;3267;48.794;9.928;2023-03-23T07:11:36;18.80;66.20
6468;DHT22;3267;48.794;9.928;2023-03-23T07:14:03;18.90;65.10
6468;DHT22;3267;48.794;9.928;2023-03-23T07:16:29;18.90;65.50
6468;DHT22;3267;48.794;9.928;2023-03-23T07:18:56;19.10;64.30
6468;DHT22;3267;48.794;9.928;2023-03-23T07:21:21;19.00;65.30
6468;DHT22;3267;48.794;9.928;2023-03-23T07:23:47;18.80;65.70
6468;DHT22;3267;48.794;9.928;2023-03-23T07:26:13;18.70;64.60
6468;DHT22;3267;48.794;9.928;2023-03-23T07:28:39;18.60;63.70
6468;DHT22;3267;48.794;9.928;2023-03-23T07:31:05;18.70;65.50
6468;DHT22;3267;48.794;9.928;2023-03-23T07:33:34;18.70;66.40
6468;DHT22;3267;48.794;9.928;2023-03-23T07:36:01;18.90;64.70
6468;DHT22;3267;48.794;9.928;2023-03-23T07:38:28;19.00;66.40
6468;DHT22;3267;48.794;9.928;2023-03-23T07:40:55;19.10;65.40
6468;DHT22;3267;48.794;9.928;2023-03-23T07:43:21;19.20;66.90
6468;DHT22;3267;48.794;9.928;2023-03-23T07:45:48;19.10;65.30
6468;DHT22;3267;48.794;9.928;2023-03-23T07:48:13;19.00;64.80
6468;DHT22;3267;48.794;9.928;2023-03-23T07:50:39;19.00;65.30
6468;DHT22;3267;48.794;9.928;2023-03-23T07:53:06;21.60;67.80
6468;DHT22;3267;48.794;9.928;2023-03-23T07:55:32;21.00;67.10
6468;DHT22;3267;48.794;9.928;2023-03-23T07:57:57;21.20;69.20
6468;DHT22;3267;48.794;9.928;2023-03-23T08:00:23;19.10;65.00
6468;DHT22;3267;48.794;9.928;2023-03-23T08:02:56;19.10;65.40
6468;DHT22;3267;48.794;9.928;2023-03-23T08:05:23;20.90;67.90
6468;DHT22;3267;48.794;9.928;2023-03-23T08:07:52;19.30;66.00
6468;DHT22;3267;48.794;9.928;2023-03-23T08:10:20;20.70;67.60
6468;DHT22;3267;48.794;9.928;2023-03-23T08:12:54;19.10;65.10
6468;DHT22;3267;48.794;9.928;2023-03-23T08:15:21;19.30;64.90
6468;DHT22;3267;48.794;9.928;2023-03-23T08:17:47;18.90;65.70
6468;DHT22;3267;48.794;9.928;2023-03-23T08:20:14;18.90;65.20
6468;DHT22;3267;48.794;9.928;2023-03-23T08:22:41;20.10;67.60
6468;DHT22;3267;48.794;9.928;2023-03-23T08:25:10;18.90;66.20
6468;DHT22;3267;48.794;9.928;2023-03-23T08:27:36;19.20;66.50
6468;DHT22;3267;48.794;9.928;2023-03-23T08:30:04;19.10;65.80
6468;DHT22;3267;48.794;9.928;2023-03-23T08:32:30;18.90;65.10
6468;DHT22;3267;48.794;9.928;2023-03-23T08:34:56;19.10;66.70
6468;DHT22;3267;48.794;9.928;2023-03-23T08:37:22;19.10;64.20
6468;DHT22;3267;48.794;9.928;2023-03-23T08:39:53;19.40;65.20
6468;DHT22;3267;48.794;9.928;2023-03-23T08:42:18;18.90;64.70
6468;DHT22;3267;48.794;9.928;2023-03-23T08:44:47;19.10;65.80
6468;DHT22;3267;48.794;9.928;2023-03-23T08:47:13;19.10;65.70
6468;DHT22;3267;48.794;9.928;2023-03-23T08:49:39;19.10;66.10
6468;DHT22;3267;48.794;9.928;2023-03-23T08:52:05;19.10;65.20
6468;DHT22;3267;48.794;9.928;2023-03-23T08:54:31;19.20;66.50
6468;DHT22;3267;48.794;9.928;2023-03-23T08:57:00;19.20;65.90
6468;DHT22;3267;48.794;9.928;2023-03-23T08:59:26;19.20;66.00
6468;DHT22;3267;48.794;9.928;2023-03-23T09:01:52;19.10;65.10
6468;DHT22;3267;48.794;9.928;2023-03-23T09:04:18;19.10;64.50
6468;DHT22;3267;48.794;9.928;2023-03-23T09:06:44;19.10;64.20
6468;DHT22;3267;48.794;9.928;2023-03-23T09:09:11;19.20;66.60
6468;DHT22;3267;48.794;9.928;2023-03-23T09:11:38;19.60;65.30
6468;DHT22;3267;48.794;9.928;2023-03-23T09:14:05;21.50;67.80
6468;DHT22;3267;48.794;9.928;2023-03-23T09:16:31;19.40;65.80
6468;DHT22;3267;48.794;9.928;2023-03-23T09:18:58;19.60;65.40
6468;DHT22;3267;48.794;9.928;2023-03-23T09:21:25;19.60;66.70
6468;DHT22;3267;48.794;9.928;2023-03-23T09:23:52;19.60;65.50
6468;DHT22;3267;48.794;9.928;2023-03-23T09:26:18;21.30;66.50
6468;DHT22;3267;48.794;9.928;2023-03-23T09:28:44;20.70;67.60
6468;DHT22;3267;48.794;9.928;2023-03-23T09:31:11;19.60;65.60
6468;DHT22;3267;48.794;9.928;2023-03-23T09:33:38;19.60;65.20
6468;DHT22;3267;48.794;9.928;2023-03-23T09:36:04;20.50;67.70
6468;DHT22;3267;48.794;9.928;2023-03-23T09:38:31;19.60;65.50
6468;DHT22;3267;48.794;9.928;2023-03-23T09:41:19;19.70;68.10
6468;DHT22;3267;48.794;9.928;2023-03-23T09:46:51;19.70;66.10
6468;DHT22;3267;48.794;9.928;2023-03-23T09:49:25;19.50;65.30
6468;DHT22;3267;48.794;9.928;2023-03-23T09:57:07;19.60;68.80
6468;DHT22;3267;48.794;9.928;2023-03-23T09:59:56;21.90;68.90
6468;DHT22;3267;48.794;9.928;2023-03-23T10:05:31;19.20;66.30
6468;DHT22;3267;48.794;9.928;2023-03-23T10:08:00;19.10;65.90
6468;DHT22;3267;48.794;9.928;2023-03-23T10:16:19;19.00;66.90
6468;DHT22;3267;48.794;9.928;2023-03-23T10:19:11;21.20;67.90
6468;DHT22;3267;48.794;9.928;2023-03-23T10:21:41;19.00;66.40
6468;DHT22;3267;48.794;9.928;2023-03-23T10:24:14;19.00;66.80
6468;DHT22;3267;48.794;9.928;2023-03-23T10:27:06;19.00;65.50
6468;DHT22;3267;48.794;9.928;2023-03-23T10:29:39;19.00;65.90
6468;DHT22;3267;48.794;9.928;2023-03-23T10:32:37;19.00;66.50
6468;DHT22;3267;48.794;9.928;2023-03-23T10:35:10;19.20;67.90
6468;DHT22;3267;48.794;9.928;2023-03-23T10:37:42;19.30;67.30
6468;DHT22;3267;48.794;9.928;2023-03-23T10:40:18;19.20;65.90
6468;DHT22;3267;48.794;9.928;2023-03-23T10:42:45;19.20;66.20
6468;DHT22;3267;48.794;9.928;2023-03-23T10:45:18;19.20;66.60
6468;DHT22;3267;48.794;9.928;2023-03-23T10:47:55;19.40;67.00
6468;DHT22;3267;48.794;9.928;2023-03-23T10:50:26;19.50;66.70
6468;DHT22;3267;48.794;9.928;2023-03-23T10:52:55;19.30;66.40
6468;DHT22;3267;48.794;9.928;2023-03-23T10:55:23;19.20;65.90
6468;DHT22;3267;48.794;9.928;2023-03-23T10:58:04;19.20;66.80
6468;DHT22;3267;48.794;9.928;2023-03-23T11:00:31;19.20;67.30
6468;DHT22;3267;48.794;9.928;2023-03-23T11:03:05;20.60;69.10
6468;DHT22;3267;48.794;9.928;2023-03-23T11:05:44;19.30;67.70
6468;DHT22;3267;48.794;9.928;2023-03-23T11:08:20;19.20;67.60
6468;DHT22;3267;48.794;9.928;2023-03-23T11:10:50;19.10;67.40
6468;DHT22;3267;48.794;9.928;2023-03-23T11:13:18;19.30;68.80
6468;DHT22;3267;48.794;9.928;2023-03-23T11:15:46;19.40;68.50
6468;DHT22;3267;48.794;9.928;2023-03-23T11:18:36;19.50;68.40
6468;DHT22;3267;48.794;9.928;2023-03-23T11:21:04;19.30;67.20
6468;DHT22;3267;48.794;9.928;2023-03-23T11:23:36;19.60;69.70
6468;DHT22;3267;48.794;9.928;2023-03-23T11:26:13;19.60;68.70
6468;DHT22;3267;48.794;9.928;2023-03-23T11:29:05;19.60;68.40
6468;DHT22;3267;48.794;9.928;2023-03-23T11:31:38;19.80;69.30
6468;DHT22;3267;48.794;9.928;2023-03-23T11:34:32;19.70;68.00
6468;DHT22;3267;48.794;9.928;2023-03-23T11:37:08;19.60;68.40
6468;DHT22;3267;48.794;9.928;2023-03-23T11:39:47;19.60;67.80
6468;DHT22;3267;48.794;9.928;2023-03-23T11:42:20;19.60;68.30
6468;DHT22;3267;48.794;9.928;2023-03-23T11:44:47;19.60;68.10
6468;DHT22;3267;48.794;9.928;2023-03-23T11:47:36;19.80;68.90
6468;DHT22;3267;48.794;9.928;2023-03-23T11:50:17;19.90;69.90
6468;DHT22;3267;48.794;9.928;2023-03-23T11:55:28;21.90;70.70
6468;DHT22;3267;48.794;9.928;2023-03-23T11:58:00;20.10;68.10
6468;DHT22;3267;48.794;9.928;2023-03-23T12:00:26;20.20;69.00
6468;DHT22;3267;48.794;9.928;2023-03-23T12:02:59;20.20;68.30
6468;DHT22;3267;48.794;9.928;2023-03-23T12:05:48;20.20;67.60
6468;DHT22;3267;48.794;9.928;2023-03-23T12:14:09;20.70;69.60
6468;DHT22;3267;48.794;9.928;2023-03-23T12:21:57;20.70;68.00
6468;DHT22;3267;48.794;9.928;2023-03-23T12:27:21;21.00;68.10
6468;DHT22;3267;48.794;9.928;2023-03-23T12:30:02;21.10;69.10
6468;DHT22;3267;48.794;9.928;2023-03-23T12:43:51;21.30;68.70
6468;DHT22;3267;48.794;9.928;2023-03-23T12:46:33;21.30;68.80
6468;DHT22;3267;48.794;9.928;2023-03-23T12:49:13;21.40;69.00
6468;DHT22;3267;48.794;9.928;2023-03-23T12:51:54;21.40;67.50
6468;DHT22;3267;48.794;9.928;2023-03-23T12:57:14;21.60;69.80
6468;DHT22;3267;48.794;9.928;2023-03-23T13:00:05;21.60;69.00
6468;DHT22;3267;48.794;9.928;2023-03-23T13:02:55;21.60;69.40
6468;DHT22;3267;48.794;9.928;2023-03-23T13:08:10;21.50;68.30
6468;DHT22;3267;48.794;9.928;2023-03-23T13:10:47;21.50;69.50
6468;DHT22;3267;48.794;9.928;2023-03-23T13:13:24;21.50;68.90
6468;DHT22;3267;48.794;9.928;2023-03-23T13:21:37;21.40;68.60
6468;DHT22;3267;48.794;9.928;2023-03-23T13:24:09;21.40;68.40
6468;DHT22;3267;48.794;9.928;2023-03-23T13:26:43;21.40;68.70
6468;DHT22;3267;48.794;9.928;2023-03-23T13:29:20;21.50;70.30
6468;DHT22;3267;48.794;9.928;2023-03-23T13:31:47;21.40;69.60
6468;DHT22;3267;48.794;9.928;2023-03-23T13:34:29;21.40;68.60
6468;DHT22;3267;48.794;9.928;2023-03-23T13:42:47;21.50;71.30
6468;DHT22;3267;48.794;9.928;2023-03-23T13:45:20;21.40;67.00
6468;DHT22;3267;48.794;9.928;2023-03-23T13:47:47;21.20;66.60
6468;DHT22;3267;48.794;9.928;2023-03-23T13:50:26;21.10;67.40
6468;DHT22;3267;48.794;9.928;2023-03-23T13:52:58;23.10;68.50
6468;DHT22;3267;48.794;9.928;2023-03-23T14:03:17;21.00;67.50
6468;DHT22;3267;48.794;9.928;2023-03-23T14:08:38;21.10;65.30
6468;DHT22;3267;48.794;9.928;2023-03-23T14:11:24;21.10;68.10
6468;DHT22;3267;48.794;9.928;2023-03-23T14:16:48;20.80;63.80
6468;DHT22;3267;48.794;9.928;2023-03-23T14:19:29;21.00;66.30
6468;DHT22;3267;48.794;9.928;2023-03-23T14:21:58;20.80;64.40
6468;DHT22;3267;48.794;9.928;2023-03-23T14:24:38;20.80;66.10
6468;DHT22;3267;48.794;9.928;2023-03-23T14:27:09;20.80;65.40
6468;DHT22;3267;48.794;9.928;2023-03-23T14:29:35;20.70;64.40
6468;DHT22;3267;48.794;9.928;2023-03-23T14:32:01;20.60;62.60
6468;DHT22;3267;48.794;9.928;2023-03-23T14:34:30;20.50;63.60
6468;DHT22;3267;48.794;9.928;2023-03-23T14:36:57;20.50;64.70
6468;DHT22;3267;48.794;9.928;2023-03-23T14:39:31;21.50;66.10
6468;DHT22;3267;48.794;9.928;2023-03-23T14:42:06;20.50;64.30
6468;DHT22;3267;48.794;9.928;2023-03-23T14:44:39;20.50;65.30
6468;DHT22;3267;48.794;9.928;2023-03-23T14:47:13;20.50;65.50
6468;DHT22;3267;48.794;9.928;2023-03-23T14:49:42;21.00;66.40
6468;DHT22;3267;48.794;9.928;2023-03-23T14:52:14;20.50;64.80
6468;DHT22;3267;48.794;9.928;2023-03-23T14:54:44;20.40;64.60
6468;DHT22;3267;48.794;9.928;2023-03-23T14:57:27;20.50;64.40
6468;DHT22;3267;48.794;9.928;2023-03-23T14:59:53;20.40;65.00
6468;DHT22;3267;48.794;9.928;2023-03-23T15:05:15;20.40;64.80
6468;DHT22;3267;48.794;9.928;2023-03-23T15:07:44;20.40;66.00
6468;DHT22;3267;48.794;9.928;2023-03-23T15:10:17;21.00;65.70
6468;DHT22;3267;48.794;9.928;2023-03-23T15:12:45;20.40;63.90
6468;DHT22;3267;48.794;9.928;2023-03-23T15:15:25;20.40;64.00
6468;DHT22;3267;48.794;9.928;2023-03-23T15:17:51;20.40;64.00
6468;DHT22;3267;48.794;9.928;2023-03-23T15:20:29;20.40;64.60
6468;DHT22;3267;48.794;9.928;2023-03-23T15:23:04;20.40;64.10
6468;DHT22;3267;48.794;9.928;2023-03-23T15:25:31;23.00;66.90
6468;DHT22;3267;48.794;9.928;2023-03-23T15:28:21;20.40;64.40
6468;DHT22;3267;48.794;9.928;2023-03-23T15:30:50;20.30;63.90
6468;DHT22;3267;48.794;9.928;2023-03-23T15:33:16;20.30;63.50
6468;DHT22;3267;48.794;9.928;2023-03-23T15:35:48;20.30;64.90
6468;DHT22;3267;48.794;9.928;2023-03-23T15:38:31;20.20;62.60
6468;DHT22;3267;48.794;9.928;2023-03-23T15:41:01;20.10;63.50
6468;DHT22;3267;48.794;9.928;2023-03-23T15:43:34;20.40;64.60
6468;DHT22;3267;48.794;9.928;2023-03-23T15:46:16;20.20;63.40
6468;DHT22;3267;48.794;9.928;2023-03-23T15:51:29;20.10;63.20
6468;DHT22;3267;48.794;9.928;2023-03-23T15:53:55;20.10;63.30
6468;DHT22;3267;48.794;9.928;2023-03-23T15:56:22;20.00;64.40
6468;DHT22;3267;48.794;9.928;2023-03-23T15:58:52;20.30;63.70
6468;DHT22;3267;48.794;9.928;2023-03-23T16:01:25;20.00;64.00
6468;DHT22;3267;48.794;9.928;2023-03-23T16:04:14;20.00;64.30
6468;DHT22;3267;48.794;9.928;2023-03-23T16:06:42;20.00;65.10
6468;DHT22;3267;48.794;9.928;2023-03-23T16:09:13;20.10;65.40
6468;DHT22;3267;48.794;9.928;2023-03-23T16:11:39;20.00;64.50
6468;DHT22;3267;48.794;9.928;2023-03-23T16:14:05;20.00;64.00
6468;DHT22;3267;48.794;9.928;2023-03-23T16:19:01;20.10;65.40
6468;DHT22;3267;48.794;9.928;2023-03-23T16:21:27;20.00;65.20
6468;DHT22;3267;48.794;9.928;2023-03-23T16:23:54;20.00;64.70
6468;DHT22;3267;48.794;9.928;2023-03-23T16:26:20;21.10;65.40
6468;DHT22;3267;48.794;9.928;2023-03-23T16:28:46;19.90;64.10
6468;DHT22;3267;48.794;9.928;2023-03-23T16:31:11;19.80;63.40
6468;DHT22;3267;48.794;9.928;2023-03-23T16:33:37;19.80;63.90
6468;DHT22;3267;48.794;9.928;2023-03-23T16:36:03;19.70;64.10
6468;DHT22;3267;48.794;9.928;2023-03-23T16:38:29;19.70;63.90
6468;DHT22;3267;48.794;9.928;2023-03-23T16:40:55;20.00;66.50
6468;DHT22;3267;48.794;9.928;2023-03-23T16:43:21;19.90;64.70
6468;DHT22;3267;48.794;9.928;2023-03-23T16:45:47;19.80;63.90
6468;DHT22;3267;48.794;9.928;2023-03-23T16:48:14;19.80;64.80
6468;DHT22;3267;48.794;9.928;2023-03-23T16:50:41;20.80;65.20
6468;DHT22;3267;48.794;9.928;2023-03-23T16:53:08;19.70;64.30
6468;DHT22;3267;48.794;9.928;2023-03-23T16:55:35;19.60;63.70
6468;DHT22;3267;48.794;9.928;2023-03-23T16:58:04;20.60;64.70
6468;DHT22;3267;48.794;9.928;2023-03-23T17:00:31;19.60;65.50
6468;DHT22;3267;48.794;9.928;2023-03-23T17:02:56;19.50;63.90
6468;DHT22;3267;48.794;9.928;2023-03-23T17:05:25;19.50;63.80
6468;DHT22;3267;48.794;9.928;2023-03-23T17:07:54;19.70;64.40
6468;DHT22;3267;48.794;9.928;2023-03-23T17:10:21;20.00;64.50
6468;DHT22;3267;48.794;9.928;2023-03-23T17:12:47;19.40;65.00
6468;DHT22;3267;48.794;9.928;2023-03-23T17:15:12;19.60;66.90
6468;DHT22;3267;48.794;9.928;2023-03-23T17:17:38;21.50;67.80
6468;DHT22;3267;48.794;9.928;2023-03-23T17:20:05;19.60;64.50
6468;DHT22;3267;48.794;9.928;2023-03-23T17:22:32;19.50;64.00
6468;DHT22;3267;48.794;9.928;2023-03-23T17:24:58;19.40;63.90
6468;DHT22;3267;48.794;9.928;2023-03-23T17:27:24;19.30;63.80
6468;DHT22;3267;48.794;9.928;2023-03-23T17:29:50;19.30;64.10
6468;DHT22;3267;48.794;9.928;2023-03-23T17:32:16;19.30;64.50
6468;DHT22;3267;48.794;9.928;2023-03-23T17:34:42;19.30;64.00
6468;DHT22;3267;48.794;9.928;2023-03-23T17:37:09;19.50;64.30
6468;DHT22;3267;48.794;9.928;2023-03-23T17:39:35;19.20;64.20
6468;DHT22;3267;48.794;9.928;2023-03-23T17:42:01;19.20;63.80
6468;DHT22;3267;48.794;9.928;2023-03-23T17:44:28;19.30;63.60
6468;DHT22;3267;48.794;9.928;2023-03-23T17:46:54;19.80;64.60
6468;DHT22;3267;48.794;9.928;2023-03-23T17:49:21;19.00;64.00
6468;DHT22;3267;48.794;9.928;2023-03-23T17:51:47;19.40;64.00
6468;DHT22;3267;48.794;9.928;2023-03-23T17:54:12;18.90;63.30
6468;DHT22;3267;48.794;9.928;2023-03-23T17:56:38;18.80;63.60
6468;DHT22;3267;48.794;9.928;2023-03-23T17:59:03;19.60;66.80
6468;DHT22;3267;48.794;9.928;2023-03-23T18:01:29;19.20;65.40
6468;DHT22;3267;48.794;9.928;2023-03-23T18:03:55;19.30;66.30
6468;DHT22;3267;48.794;9.928;2023-03-23T18:06:20;19.30;65.80
6468;DHT22;3267;48.794;9.928;2023-03-23T18:08:46;19.90;72.50
6468;DHT22;3267;48.794;9.928;2023-03-23T18:11:11;19.80;66.70
6468;DHT22;3267;48.794;9.928;2023-03-23T18:13:37;19.60;67.70
6468;DHT22;3267;48.794;9.928;2023-03-23T18:16:04;19.80;66.90
6468;DHT22;3267;48.794;9.928;2023-03-23T18:18:30;19.70;69.50
6468;DHT22;3267;48.794;9.928;2023-03-23T18:20:58;21.10;68.60
6468;DHT22;3267;48.794;9.928;2023-03-23T18:23:24;19.70;70.20
6468;DHT22;3267;48.794;9.928;2023-03-23T18:25:51;20.20;67.70
6468;DHT22;3267;48.794;9.928;2023-03-23T18:28:19;21.30;71.80
6468;DHT22;3267;48.794;9.928;2023-03-23T18:30:45;20.10;67.30
6468;DHT22;3267;48.794;9.928;2023-03-23T18:33:15;19.80;67.90
6468;DHT22;3267;48.794;9.928;2023-03-23T18:35:41;19.60;66.50
6468;DHT22;3267;48.794;9.928;2023-03-23T18:38:07;19.60;68.70
6468;DHT22;3267;48.794;9.928;2023-03-23T18:40:33;20.30;69.70
6468;DHT22;3267;48.794;9.928;2023-03-23T18:42:58;20.00;67.70
6468;DHT22;3267;48.794;9.928;2023-03-23T18:45:25;20.00;68.00
6468;DHT22;3267;48.794;9.928;2023-03-23T18:47:51;19.80;68.70
6468;DHT22;3267;48.794;9.928;2023-03-23T18:50:17;19.70;67.40
6468;DHT22;3267;48.794;9.928;2023-03-23T18:52:43;19.60;67.40
6468;DHT22;3267;48.794;9.928;2023-03-23T18:55:09;20.30;68.10
6468;DHT22;3267;48.794;9.928;2023-03-23T18:57:38;19.40;69.40
6468;DHT22;3267;48.794;9.928;2023-03-23T19:00:04;19.30;67.80
6468;DHT22;3267;48.794;9.928;2023-03-23T19:02:30;19.50;69.90
6468;DHT22;3267;48.794;9.928;2023-03-23T19:04:56;19.40;68.20
6468;DHT22;3267;48.794;9.928;2023-03-23T19:07:22;19.40;67.90
6468;DHT22;3267;48.794;9.928;2023-03-23T19:09:47;19.30;68.00
6468;DHT22;3267;48.794;9.928;2023-03-23T19:12:13;19.30;69.10
6468;DHT22;3267;48.794;9.928;2023-03-23T19:14:40;19.20;67.60
6468;DHT22;3267;48.794;9.928;2023-03-23T19:17:06;19.20;67.60
6468;DHT22;3267;48.794;9.928;2023-03-23T19:19:33;19.20;68.20
6468;DHT22;3267;48.794;9.928;2023-03-23T19:21:59;19.20;69.00
6468;DHT22;3267;48.794;9.928;2023-03-23T19:24:25;19.40;67.90
6468;DHT22;3267;48.794;9.928;2023-03-23T19:26:54;19.30;68.00
6468;DHT22;3267;48.794;9.928;2023-03-23T19:29:20;19.30;69.40
6468;DHT22;3267;48.794;9.928;2023-03-23T19:31:46;19.40;68.80
6468;DHT22;3267;48.794;9.928;2023-03-23T19:34:12;19.40;69.00
6468;DHT22;3267;48.794;9.928;2023-03-23T19:36:38;21.80;70.10
6468;DHT22;3267;48.794;9.928;2023-03-23T19:39:05;19.20;68.00
6468;DHT22;3267;48.794;9.928;2023-03-23T19:41:32;19.60;71.80
6468;DHT22;3267;48.794;9.928;2023-03-23T19:43:58;20.00;72.40
6468;DHT22;3267;48.794;9.928;2023-03-23T19:46:26;19.80;68.80
6468;DHT22;3267;48.794;9.928;2023-03-23T19:48:52;19.70;68.10
6468;DHT22;3267;48.794;9.928;2023-03-23T19:51:19;19.40;68.50
6468;DHT22;3267;48.794;9.928;2023-03-23T19:53:45;19.50;69.90
6468;DHT22;3267;48.794;9.928;2023-03-23T19:56:19;19.40;70.70
6468;DHT22;3267;48.794;9.928;2023-03-23T19:58:48;20.00;70.10
6468;DHT22;3267;48.794;9.928;2023-03-23T20:01:14;20.10;71.70
6468;DHT22;3267;48.794;9.928;2023-03-23T20:03:40;20.40;69.70
6468;DHT22;3267;48.794;9.928;2023-03-23T20:06:11;21.30;70.40
6468;DHT22;3267;48.794;9.928;2023-03-23T20:08:40;20.00;69.30
6468;DHT22;3267;48.794;9.928;2023-03-23T20:11:09;20.00;70.00
6468;DHT22;3267;48.794;9.928;2023-03-23T20:13:35;19.70;69.60
6468;DHT22;3267;48.794;9.928;2023-03-23T20:16:01;19.60;69.90
6468;DHT22;3267;48.794;9.928;2023-03-23T20:18:27;19.50;69.40
6468;DHT22;3267;48.794;9.928;2023-03-23T20:21:07;20.00;71.70
6468;DHT22;3267;48.794;9.928;2023-03-23T20:23:34;19.70;69.60
6468;DHT22;3267;48.794;9.928;2023-03-23T20:26:02;20.10;69.80
6468;DHT22;3267;48.794;9.928;2023-03-23T20:28:28;19.70;70.00
6468;DHT22;3267;48.794;9.928;2023-03-23T20:31:18;19.50;69.00
6468;DHT22;3267;48.794;9.928;2023-03-23T20:33:45;19.80;70.50
6468;DHT22;3267;48.794;9.928;2023-03-23T20:36:13;19.90;70.20
6468;DHT22;3267;48.794;9.928;2023-03-23T20:38:45;19.80;69.50
6468;DHT22;3267;48.794;9.928;2023-03-23T20:41:11;19.60;69.50
6468;DHT22;3267;48.794;9.928;2023-03-23T20:43:38;19.30;69.10
6468;DHT22;3267;48.794;9.928;2023-03-23T20:46:06;19.30;69.80
6468;DHT22;3267;48.794;9.928;2023-03-23T20:48:33;19.50;71.00
6468;DHT22;3267;48.794;9.928;2023-03-23T20:51:01;19.50;71.80
6468;DHT22;3267;48.794;9.928;2023-03-23T20:53:29;19.40;71.30
6468;DHT22;3267;48.794;9.928;2023-03-23T20:55:56;19.20;69.90
6468;DHT22;3267;48.794;9.928;2023-03-23T20:58:24;19.10;70.10
6468;DHT22;3267;48.794;9.928;2023-03-23T21:00:51;21.20;73.00
6468;DHT22;3267;48.794;9.928;2023-03-23T21:03:23;19.40;72.80
6468;DHT22;3267;48.794;9.928;2023-03-23T21:05:49;19.20;69.60
6468;DHT22;3267;48.794;9.928;2023-03-23T21:08:15;18.90;69.60
6468;DHT22;3267;48.794;9.928;2023-03-23T21:10:42;18.80;69.20
6468;DHT22;3267;48.794;9.928;2023-03-23T21:13:08;18.70;69.80
6468;DHT22;3267;48.794;9.928;2023-03-23T21:15:35;18.80;70.40
6468;DHT22;3267;48.794;9.928;2023-03-23T21:18:01;18.90;70.70
6468;DHT22;3267;48.794;9.928;2023-03-23T21:20:27;19.20;70.00
6468;DHT22;3267;48.794;9.928;2023-03-23T21:22:53;18.60;69.70
6468;DHT22;3267;48.794;9.928;2023-03-23T21:25:18;18.50;69.50
6468;DHT22;3267;48.794;9.928;2023-03-23T21:27:47;18.50;70.30
6468;DHT22;3267;48.794;9.928;2023-03-23T21:30:14;19.10;70.10
6468;DHT22;3267;48.794;9.928;2023-03-23T21:32:39;18.50;70.30
6468;DHT22;3267;48.794;9.928;2023-03-23T21:35:05;18.80;71.60
6468;DHT22;3267;48.794;9.928;2023-03-23T21:37:31;19.00;71.70
6468;DHT22;3267;48.794;9.928;2023-03-23T21:39:57;18.80;69.90
6468;DHT22;3267;48.794;9.928;2023-03-23T21:42:23;19.50;69.70
6468;DHT22;3267;48.794;9.928;2023-03-23T21:44:56;18.90;70.90
6468;DHT22;3267;48.794;9.928;2023-03-23T21:47:22;18.70;70.10
6468;DHT22;3267;48.794;9.928;2023-03-23T21:49:48;18.60;69.60
6468;DHT22;3267;48.794;9.928;2023-03-23T21:52:14;18.50;69.90
6468;DHT22;3267;48.794;9.928;2023-03-23T21:54:39;18.60;70.20
6468;DHT22;3267;48.794;9.928;2023-03-23T21:57:06;18.70;71.20
6468;DHT22;3267;48.794;9.928;2023-03-23T21:59:31;18.60;69.90
6468;DHT22;3267;48.794;9.928;2023-03-23T22:01:57;18.60;70.40
6468;DHT22;3267;48.794;9.928;2023-03-23T22:04:23;18.50;69.80
6468;DHT22;3267;48.794;9.928;2023-03-23T22:06:49;18.40;69.40
6468;DHT22;3267;48.794;9.928;2023-03-23T22:09:15;18.20;69.40
6468;DHT22;3267;48.794;9.928;2023-03-23T22:11:41;18.20;70.10
6468;DHT22;3267;48.794;9.928;2023-03-23T22:14:07;18.20;69.80
6468;DHT22;3267;48.794;9.928;2023-03-23T22:16:33;18.40;71.30
6468;DHT22;3267;48.794;9.928;2023-03-23T22:18:58;18.50;70.60
6468;DHT22;3267;48.794;9.928;2023-03-23T22:21:25;18.50;70.50
6468;DHT22;3267;48.794;9.928;2023-03-23T22:23:53;18.80;70.80
6468;DHT22;3267;48.794;9.928;2023-03-23T22:26:19;20.60;72.50
6468;DHT22;3267;48.794;9.928;2023-03-23T22:28:46;19.30;71.10
